createdAt,value
2018-04-23T00:02:19.380Z,92.10
2018-04-23T00:04:45.352Z,93.60
2018-04-23T00:07:11.321Z,92.50
2018-04-23T00:09:37.317Z,92.20
2018-04-23T00:12:04.061Z,91.30
2018-04-23T00:14:30.780Z,91.60
2018-04-23T00:16:56.776Z,91.60
2018-04-23T00:19:22.742Z,91.30
2018-04-23T00:21:49.455Z,90.70
2018-04-23T00:24:15.440Z,90.80
2018-04-23T00:26:41.434Z,90.60
2018-04-23T00:29:08.170Z,90.10
2018-04-23T00:31:34.898Z,91.00
2018-04-23T00:34:00.861Z,91.00
2018-04-23T00:36:26.856Z,91.10
2018-04-23T00:38:53.572Z,91.20
2018-04-23T00:41:19.562Z,91.20
2018-04-23T00:43:45.541Z,91.30
2018-04-23T00:46:12.265Z,90.80
2018-04-23T00:48:38.228Z,90.80
2018-04-23T00:51:04.229Z,91.40
2018-04-23T00:53:37.117Z,90.60
2018-04-23T00:56:03.857Z,91.20
2018-04-23T00:58:30.577Z,91.50
2018-04-23T01:00:56.556Z,91.40
2018-04-23T01:03:22.543Z,91.60
2018-04-23T01:05:49.278Z,91.00
2018-04-23T01:08:15.993Z,91.80
2018-04-23T01:10:41.972Z,91.80
2018-04-23T01:13:07.945Z,92.20
2018-04-23T01:15:33.937Z,92.50
2018-04-23T01:17:59.914Z,92.10
2018-04-23T01:20:25.905Z,92.50
2018-04-23T01:22:51.869Z,91.90
2018-04-23T01:25:18.579Z,92.00
2018-04-23T01:27:44.541Z,92.00
2018-04-23T01:30:10.517Z,92.10
2018-04-23T01:32:36.502Z,91.70
2018-04-23T01:35:02.469Z,91.70
2018-04-23T01:37:28.481Z,92.00
2018-04-23T01:39:54.447Z,91.90
2018-04-23T01:42:20.488Z,92.00
2018-04-23T01:44:46.465Z,91.60
2018-04-23T01:47:12.461Z,92.10
2018-04-23T01:49:38.458Z,91.80
2018-04-23T01:52:04.477Z,92.40
2018-04-23T01:54:30.454Z,92.50
2018-04-23T01:56:56.433Z,92.30
2018-04-23T01:59:22.401Z,92.10
2018-04-23T02:01:49.146Z,92.20
2018-04-23T02:04:15.155Z,92.20
2018-04-23T02:06:41.136Z,91.90
2018-04-23T02:09:07.127Z,92.60
2018-04-23T02:11:33.865Z,92.50
2018-04-23T02:14:00.569Z,92.40
2018-04-23T02:16:26.553Z,92.30
2018-04-23T02:18:52.525Z,92.20
2018-04-23T02:21:19.277Z,92.60
2018-04-23T02:23:45.246Z,92.60
2018-04-23T02:26:11.237Z,92.60
2018-04-23T02:28:37.242Z,92.60
2018-04-23T02:31:03.225Z,92.90
2018-04-23T02:33:29.193Z,92.10
2018-04-23T02:35:55.165Z,92.90
2018-04-23T02:38:21.136Z,92.60
2018-04-23T02:40:47.106Z,92.70
2018-04-23T02:43:13.097Z,93.40
2018-04-23T02:45:39.821Z,93.40
2018-04-23T02:48:05.805Z,93.40
2018-04-23T02:50:31.778Z,93.40
2018-04-23T02:52:58.538Z,94.00
2018-04-23T02:55:24.504Z,93.50
2018-04-23T02:57:50.487Z,92.90
2018-04-23T03:00:16.477Z,94.00
2018-04-23T03:02:42.483Z,93.90
2018-04-23T03:05:08.480Z,94.60
2018-04-23T03:07:35.205Z,93.90
2018-04-23T03:10:01.185Z,94.00
2018-04-23T03:12:27.182Z,93.70
2018-04-23T03:14:53.148Z,94.20
2018-04-23T03:17:19.894Z,94.40
2018-04-23T03:19:46.613Z,94.50
2018-04-23T03:22:12.593Z,94.50
2018-04-23T03:24:38.557Z,95.00
2018-04-23T03:27:04.560Z,95.20
2018-04-23T03:29:30.533Z,94.70
2018-04-23T03:31:56.530Z,94.80
2018-04-23T03:34:23.256Z,95.10
2018-04-23T03:36:49.239Z,95.10
2018-04-23T03:39:15.216Z,95.30
2018-04-23T03:41:41.186Z,95.30
2018-04-23T03:44:07.157Z,94.80
2018-04-23T03:46:33.125Z,94.60
2018-04-23T03:48:59.100Z,94.90
2018-04-23T03:51:25.148Z,94.40
2018-04-23T03:53:51.129Z,94.50
2018-04-23T03:56:17.125Z,93.80
2018-04-23T03:58:43.133Z,94.70
2018-04-23T04:01:09.109Z,94.50
2018-04-23T04:03:35.093Z,94.50
2018-04-23T04:06:01.065Z,93.90
2018-04-23T04:08:27.065Z,93.60
2018-04-23T04:10:53.061Z,93.70
2018-04-23T04:13:25.137Z,94.40
2018-04-23T04:15:57.188Z,94.70
2018-04-23T04:18:30.025Z,94.20
2018-04-23T04:20:56.017Z,94.60
2018-04-23T04:23:22.010Z,94.00
2018-04-23T04:25:48.165Z,93.90
2018-04-23T04:28:14.160Z,94.30
2018-04-23T04:30:40.137Z,93.60
2018-04-23T04:33:06.128Z,93.80
2018-04-23T04:35:32.136Z,93.20
2018-04-23T04:37:58.112Z,93.70
2018-04-23T04:40:24.117Z,93.70
2018-04-23T04:42:50.117Z,94.20
2018-04-23T04:45:16.105Z,94.50
2018-04-23T04:47:42.825Z,93.60
2018-04-23T04:50:08.865Z,93.60
2018-04-23T04:52:35.585Z,94.40
2018-04-23T04:55:01.590Z,94.30
2018-04-23T04:57:27.590Z,94.80
2018-04-23T04:59:53.572Z,94.60
2018-04-23T05:02:20.315Z,94.00
2018-04-23T05:04:47.240Z,94.00
2018-04-23T05:07:13.214Z,94.10
2018-04-23T05:09:39.249Z,94.40
2018-04-23T05:12:05.229Z,94.90
2018-04-23T05:14:31.192Z,94.90
2018-04-23T05:16:57.336Z,95.30
2018-04-23T05:19:23.339Z,94.90
2018-04-23T05:21:49.305Z,95.30
2018-04-23T05:24:15.305Z,94.70
2018-04-23T05:26:41.276Z,95.10
2018-04-23T05:29:07.278Z,94.90
2018-04-23T05:31:33.245Z,94.50
2018-04-23T05:33:59.244Z,94.50
2018-04-23T05:36:25.974Z,94.10
2018-04-23T05:38:52.705Z,94.60
2018-04-23T05:41:19.456Z,94.50
2018-04-23T05:43:46.302Z,94.20
2018-04-23T05:46:13.038Z,93.70
2018-04-23T05:48:39.182Z,93.70
2018-04-23T05:51:05.157Z,93.90
2018-04-23T05:53:31.173Z,94.00
2018-04-23T05:55:57.141Z,94.40
2018-04-23T05:58:23.920Z,93.60
2018-04-23T06:00:49.905Z,93.60
2018-04-23T06:03:16.610Z,93.30
2018-04-23T06:05:42.597Z,93.30
2018-04-23T06:08:08.567Z,93.00
2018-04-23T06:10:34.542Z,92.90
2018-04-23T06:13:00.518Z,93.00
2018-04-23T06:15:26.491Z,92.60
2018-04-23T06:17:52.460Z,92.70
2018-04-23T06:20:18.461Z,93.00
2018-04-23T06:22:44.437Z,92.70
2018-04-23T06:25:11.145Z,92.70
2018-04-23T06:27:37.132Z,92.70
2018-04-23T06:30:03.109Z,92.60
2018-04-23T06:32:29.852Z,91.60
2018-04-23T06:34:56.577Z,91.00
2018-04-23T06:37:22.565Z,91.00
2018-04-23T06:39:48.577Z,91.00
2018-04-23T06:42:14.541Z,91.20
2018-04-23T06:44:40.529Z,91.30
2018-04-23T06:47:06.505Z,91.00
2018-04-23T06:49:33.245Z,91.00
2018-04-23T06:51:59.983Z,90.80
2018-04-23T06:54:26.708Z,90.80
2018-04-23T06:56:52.681Z,91.10
2018-04-23T06:59:18.709Z,90.80
2018-04-23T07:01:44.685Z,90.70
2018-04-23T07:04:10.677Z,91.00
2018-04-23T07:06:36.657Z,90.80
2018-04-23T07:09:02.669Z,91.40
2018-04-23T07:11:28.836Z,90.90
2018-04-23T07:13:54.855Z,91.40
2018-04-23T07:16:20.985Z,91.40
2018-04-23T07:18:46.962Z,91.00
2018-04-23T07:21:13.685Z,91.00
2018-04-23T07:23:39.656Z,91.00
2018-04-23T07:26:05.649Z,91.20
2018-04-23T07:28:32.390Z,90.70
2018-04-23T07:30:58.415Z,90.60
2018-04-23T07:33:24.436Z,90.50
2018-04-23T07:35:51.161Z,91.20
2018-04-23T07:38:17.160Z,90.90
2018-04-23T07:40:43.162Z,90.90
2018-04-23T07:43:09.157Z,91.10
2018-04-23T07:45:35.872Z,91.70
2018-04-23T07:48:01.847Z,91.70
2018-04-23T07:50:27.842Z,91.60
2018-04-23T07:52:53.845Z,91.10
2018-04-23T07:55:20.094Z,90.40
2018-04-23T07:57:46.201Z,90.30
2018-04-23T08:00:12.953Z,90.30
2018-04-23T08:02:39.669Z,90.20
2018-04-23T08:05:12.685Z,90.30
2018-04-23T08:07:39.404Z,88.60
2018-04-23T08:10:05.405Z,88.60
2018-04-23T08:12:31.372Z,89.50
2018-04-23T08:14:58.126Z,88.30
2018-04-23T08:17:24.104Z,88.20
2018-04-23T08:19:50.848Z,88.20
2018-04-23T08:22:16.817Z,88.30
2018-04-23T08:24:42.805Z,88.50
2018-04-23T08:27:08.763Z,88.10
2018-04-23T08:29:35.492Z,84.50
2018-04-23T08:32:01.562Z,84.50
2018-04-23T08:34:28.228Z,83.90
2018-04-23T08:36:54.212Z,83.80
2018-04-23T08:39:20.236Z,85.10
2018-04-23T08:41:46.246Z,84.30
2018-04-23T08:44:12.243Z,81.40
2018-04-23T08:46:39.005Z,79.00
2018-04-23T08:49:04.989Z,79.00
2018-04-23T08:51:30.965Z,80.30
2018-04-23T08:53:56.950Z,77.60
2018-04-23T08:56:22.928Z,78.40
2018-04-23T08:58:49.071Z,78.60
2018-04-23T09:01:15.125Z,76.20
2018-04-23T09:03:41.849Z,75.60
2018-04-23T09:06:07.845Z,75.60
2018-04-23T09:08:33.829Z,75.20
2018-04-23T09:10:59.834Z,73.00
2018-04-23T09:13:26.557Z,73.40
2018-04-23T09:15:52.553Z,73.30
2018-04-23T09:18:18.529Z,72.40
2018-04-23T09:20:44.530Z,71.90
2018-04-23T09:23:11.518Z,70.80
2018-04-23T09:25:37.509Z,71.40
2018-04-23T09:28:04.805Z,72.10
2018-04-23T09:30:30.806Z,72.00
2018-04-23T09:32:56.784Z,71.60
2018-04-23T09:35:22.798Z,70.10
2018-04-23T09:37:48.813Z,68.60
2018-04-23T09:40:14.793Z,68.70
2018-04-23T09:42:40.801Z,66.80
2018-04-23T09:45:07.541Z,66.40
2018-04-23T09:47:34.281Z,65.20
2018-04-23T09:50:01.009Z,65.80
2018-04-23T09:52:27.061Z,65.80
2018-04-23T09:54:53.045Z,65.40
2018-04-23T09:57:19.070Z,65.30
2018-04-23T09:59:45.050Z,64.50
2018-04-23T10:02:11.053Z,66.30
2018-04-23T10:04:37.781Z,65.80
2018-04-23T10:07:03.766Z,65.80
2018-04-23T10:09:29.749Z,66.60
2018-04-23T10:11:56.470Z,63.90
2018-04-23T10:14:23.190Z,64.50
2018-04-23T10:16:49.161Z,64.40
2018-04-23T10:19:15.160Z,62.30
2018-04-23T10:21:41.877Z,63.10
2018-04-23T10:24:07.853Z,63.10
2018-04-23T10:26:33.837Z,62.30
2018-04-23T10:29:00.582Z,60.10
2018-04-23T10:31:27.346Z,59.10
2018-04-23T10:33:54.065Z,60.80
2018-04-23T10:36:20.801Z,60.60
2018-04-23T10:38:47.553Z,60.60
2018-04-23T10:41:13.635Z,60.60
2018-04-23T10:43:39.677Z,61.60
2018-04-23T10:46:06.422Z,61.50
2018-04-23T10:48:33.197Z,62.30
2018-04-23T10:50:59.288Z,61.70
2018-04-23T10:53:25.290Z,62.70
2018-04-23T10:55:51.305Z,62.00
2018-04-23T10:58:18.090Z,62.10
2018-04-23T11:00:44.814Z,62.10
2018-04-23T11:03:10.809Z,62.10
2018-04-23T11:05:36.789Z,61.30
2018-04-23T11:08:02.781Z,60.80
2018-04-23T11:10:28.792Z,60.40
2018-04-23T11:12:56.263Z,60.80
2018-04-23T11:15:22.232Z,60.80
2018-04-23T11:17:48.225Z,59.30
2018-04-23T11:20:14.949Z,60.20
2018-04-23T11:22:40.928Z,60.10
2018-04-23T11:25:06.941Z,58.50
2018-04-23T11:27:32.916Z,58.10
2018-04-23T11:30:00.372Z,52.20
2018-04-23T11:32:26.343Z,52.20
2018-04-23T11:34:52.331Z,50.50
2018-04-23T11:37:18.304Z,49.30
2018-04-23T11:39:44.285Z,49.80
2018-04-23T11:42:11.021Z,48.40
2018-04-23T11:44:37.749Z,48.20
2018-04-23T11:47:04.681Z,47.20
2018-04-23T11:49:32.149Z,49.60
2018-04-23T11:51:59.641Z,51.80
2018-04-23T11:54:25.650Z,51.80
2018-04-23T11:56:52.389Z,53.70
2018-04-23T11:59:19.124Z,52.30
2018-04-23T12:01:45.113Z,52.30
2018-04-23T12:04:11.182Z,49.80
2018-04-23T12:06:37.200Z,50.10
2018-04-23T12:09:04.792Z,49.90
2018-04-23T12:11:30.783Z,49.90
2018-04-23T12:13:57.525Z,51.70
2018-04-23T12:16:24.249Z,51.50
2018-04-23T12:18:51.898Z,51.50
2018-04-23T12:21:18.053Z,51.70
2018-04-23T12:23:44.792Z,49.70
2018-04-23T12:26:11.554Z,47.90
2018-04-23T12:28:37.557Z,47.70
2018-04-23T12:31:05.416Z,45.50
2018-04-23T12:33:31.409Z,45.50
2018-04-23T12:35:57.638Z,46.80
2018-04-23T12:38:23.633Z,46.90
2018-04-23T12:40:51.145Z,48.10
2018-04-23T12:43:17.158Z,48.30
2018-04-23T12:45:44.169Z,48.50
2018-04-23T12:48:10.169Z,47.20
2018-04-23T12:50:38.956Z,46.30
2018-04-23T12:53:06.564Z,42.80
2018-04-23T12:55:32.540Z,42.70
2018-04-23T12:58:00.137Z,42.50
2018-04-23T13:00:26.130Z,42.50
2018-04-23T13:02:53.703Z,43.80
2018-04-23T13:05:19.677Z,43.70
2018-04-23T13:07:46.397Z,44.20
2018-04-23T13:10:13.293Z,44.40
2018-04-23T13:12:40.221Z,46.70
2018-04-23T13:15:07.779Z,45.80
2018-04-23T13:17:35.064Z,45.20
2018-04-23T13:20:01.094Z,45.00
2018-04-23T13:22:27.821Z,44.20
2018-04-23T13:24:54.422Z,43.40
2018-04-23T13:27:22.304Z,44.40
2018-04-23T13:29:52.409Z,44.40
2018-04-23T13:32:29.180Z,43.20
2018-04-23T13:34:56.773Z,43.20
2018-04-23T13:37:23.089Z,41.60
2018-04-23T13:39:51.058Z,42.80
2018-04-23T13:42:18.810Z,41.30
2018-04-23T13:44:48.488Z,41.20
2018-04-23T13:47:16.837Z,41.30
2018-04-23T13:49:44.642Z,40.30
2018-04-23T13:52:13.016Z,42.20
2018-04-23T13:54:41.145Z,43.00
2018-04-23T13:57:11.632Z,41.30
2018-04-23T13:59:41.206Z,41.60
2018-04-23T14:02:11.301Z,40.30
2018-04-23T14:04:39.856Z,38.40
2018-04-23T14:07:08.764Z,38.20
2018-04-23T14:09:37.037Z,36.40
2018-04-23T14:12:06.402Z,37.40
2018-04-23T14:14:35.226Z,37.30
2018-04-23T14:17:03.556Z,37.20
2018-04-23T14:19:34.934Z,35.30
2018-04-23T14:22:05.165Z,37.10
2018-04-23T14:24:35.665Z,36.00
2018-04-23T14:27:15.004Z,37.30
2018-04-23T14:29:46.942Z,34.80
2018-04-23T14:32:20.873Z,34.70
2018-04-23T14:34:51.721Z,35.10
2018-04-23T14:37:26.623Z,35.30
2018-04-23T14:40:02.695Z,35.30
2018-04-23T14:42:46.184Z,34.00
2018-04-23T14:45:36.015Z,35.80
2018-04-23T14:48:21.210Z,35.90
2018-04-23T14:54:04.768Z,36.10
2018-04-23T14:56:59.489Z,36.20
2018-04-23T17:08:15.764Z,42.40
2018-04-23T17:10:41.866Z,42.20
2018-04-23T17:13:09.324Z,43.10
2018-04-23T17:15:35.342Z,43.20
2018-04-23T17:18:02.102Z,41.40
2018-04-23T17:20:28.847Z,40.80
2018-04-23T17:22:55.582Z,40.40
2018-04-23T17:25:21.573Z,40.50
2018-04-23T17:27:47.560Z,39.90
2018-04-23T17:30:13.537Z,41.10
2018-04-23T17:32:39.538Z,41.10
2018-04-23T17:35:05.517Z,39.80
2018-04-23T17:37:31.498Z,39.60
2018-04-23T17:39:57.505Z,38.10
2018-04-23T17:42:23.509Z,40.60
2018-04-23T17:44:49.517Z,41.70
2018-04-23T17:47:15.581Z,42.20
2018-04-23T17:49:41.577Z,42.80
2018-04-23T17:52:07.569Z,42.90
2018-04-23T17:54:34.317Z,41.50
2018-04-23T17:57:01.045Z,42.90
2018-04-23T17:59:27.762Z,44.40
2018-04-23T18:01:53.775Z,43.90
2018-04-23T18:04:19.772Z,44.80
2018-04-23T18:06:45.773Z,45.40
2018-04-23T18:09:11.825Z,46.00
2018-04-23T18:11:37.837Z,47.40
2018-04-23T18:14:03.842Z,47.50
2018-04-23T18:16:29.851Z,48.30
2018-04-23T18:18:56.593Z,50.00
2018-04-23T18:21:23.345Z,50.90
2018-04-23T18:23:49.336Z,50.90
2018-04-23T18:26:15.345Z,52.10
2018-04-23T18:28:41.338Z,51.70
2018-04-23T18:31:07.341Z,51.70
2018-04-23T18:33:33.323Z,51.70
2018-04-23T18:35:59.381Z,52.40
2018-04-23T18:38:25.398Z,53.30
2018-04-23T18:40:51.422Z,52.30
2018-04-23T18:43:17.481Z,53.80
2018-04-23T18:45:43.515Z,53.80
2018-04-23T18:48:09.464Z,54.30
2018-04-23T18:50:35.483Z,55.40
2018-04-23T18:53:01.488Z,55.90
2018-04-23T18:55:27.473Z,55.10
2018-04-23T18:57:54.205Z,56.10
2018-04-23T19:00:20.390Z,56.10
2018-04-23T19:02:46.396Z,56.70
2018-04-23T19:05:12.389Z,57.40
2018-04-23T19:07:38.394Z,58.00
2018-04-23T19:10:05.125Z,59.20
2018-04-23T19:12:31.185Z,59.20
2018-04-23T19:14:57.169Z,60.00
2018-04-23T19:17:23.173Z,59.00
2018-04-23T19:19:49.193Z,59.70
2018-04-23T19:22:15.304Z,60.10
2018-04-23T19:24:41.284Z,60.50
2018-04-23T19:27:08.025Z,61.40
2018-04-23T19:29:34.758Z,63.10
2018-04-23T19:32:01.489Z,64.20
2018-04-23T19:34:27.519Z,63.90
2018-04-23T19:36:54.301Z,66.50
2018-04-23T19:39:20.533Z,65.90
2018-04-23T19:41:46.570Z,65.90
2018-04-23T19:44:12.581Z,65.80
2018-04-23T19:46:38.577Z,65.60
2018-04-23T19:49:04.592Z,66.20
2018-04-23T19:51:31.320Z,68.50
2018-04-23T19:53:57.317Z,68.50
2018-04-23T19:56:23.316Z,67.50
2018-04-23T19:58:49.312Z,66.10
2018-04-23T20:01:16.096Z,67.80
2018-04-23T20:03:42.089Z,67.80
2018-04-23T20:06:08.091Z,68.10
2018-04-23T20:08:34.996Z,67.10
2018-04-23T20:11:00.968Z,67.20
2018-04-23T20:13:27.696Z,68.70
2018-04-23T20:15:54.470Z,68.50
2018-04-23T20:18:20.456Z,68.60
2018-04-23T20:20:46.601Z,69.10
2018-04-23T20:23:12.970Z,69.30
2018-04-23T20:25:38.874Z,71.50
2018-04-23T20:28:04.865Z,69.80
2018-04-23T20:30:31.603Z,71.20
2018-04-23T20:32:58.379Z,71.30
2018-04-23T20:35:24.471Z,71.30
2018-04-23T20:37:50.456Z,70.70
2018-04-23T20:40:16.438Z,70.60
2018-04-23T20:42:42.429Z,70.30
2018-04-23T20:45:08.425Z,69.80
2018-04-23T20:47:34.417Z,71.50
2018-04-23T20:50:00.409Z,71.90
2018-04-23T20:52:27.164Z,73.70
2018-04-23T20:54:53.893Z,74.00
2018-04-23T20:57:20.630Z,73.20
2018-04-23T20:59:47.361Z,72.40
2018-04-23T21:02:13.357Z,72.40
2018-04-23T21:04:39.364Z,71.90
2018-04-23T21:07:05.341Z,72.80
2018-04-23T21:09:32.077Z,72.60
2018-04-23T21:11:58.057Z,72.50
2018-04-23T21:14:24.065Z,72.90
2018-04-23T21:16:50.053Z,72.60
2018-04-23T21:19:16.777Z,73.30
2018-04-23T21:21:42.753Z,73.40
2018-04-23T21:24:08.755Z,75.00
2018-04-23T21:26:35.483Z,77.40
2018-04-23T21:29:02.228Z,77.00
2018-04-23T21:31:28.977Z,75.60
2018-04-23T21:33:54.969Z,75.70
2018-04-23T21:36:21.729Z,76.20
2018-04-23T21:38:48.596Z,77.20
2018-04-23T21:41:14.596Z,76.50
2018-04-23T21:43:41.390Z,76.40
2018-04-23T21:46:07.336Z,76.40
2018-04-23T21:48:33.349Z,76.70
2018-04-23T21:50:59.401Z,79.10
2018-04-23T21:53:25.440Z,78.50
2018-04-23T21:55:52.166Z,78.80
2018-04-23T21:58:18.916Z,77.20
2018-04-23T22:00:45.644Z,78.70
2018-04-23T22:03:12.373Z,78.20
2018-04-23T22:05:38.540Z,77.80
2018-04-23T22:08:04.529Z,76.60
2018-04-23T22:10:30.522Z,77.10
2018-04-23T22:12:56.513Z,77.40
2018-04-23T22:15:22.496Z,77.50
2018-04-23T22:17:49.261Z,79.00
2018-04-23T22:20:15.989Z,78.20
2018-04-23T22:22:42.740Z,79.00
2018-04-23T22:25:08.737Z,79.00
2018-04-23T22:27:34.708Z,79.50
2018-04-23T22:30:00.685Z,78.90
2018-04-23T22:32:26.691Z,78.10
2018-04-23T22:34:52.661Z,77.80
2018-04-23T22:37:19.421Z,79.00
2018-04-23T22:39:45.404Z,79.00
2018-04-23T22:42:11.393Z,78.90
2018-04-23T22:44:37.401Z,78.30
2018-04-23T22:47:03.432Z,80.10
2018-04-23T22:49:29.415Z,80.70
2018-04-23T22:51:56.137Z,78.90
2018-04-23T22:54:22.142Z,78.90
2018-04-23T22:56:48.124Z,78.90
2018-04-23T22:59:14.117Z,79.40
2018-04-23T23:01:40.880Z,78.90
2018-04-23T23:04:07.577Z,82.60
2018-04-23T23:06:33.553Z,82.60
2018-04-23T23:08:59.549Z,80.30
2018-04-23T23:11:26.281Z,78.80
2018-04-23T23:13:53.017Z,79.20
2018-04-23T23:16:19.778Z,80.00
2018-04-23T23:18:46.505Z,80.90
2018-04-23T23:21:13.221Z,80.50
2018-04-23T23:23:39.982Z,79.70
2018-04-23T23:26:06.719Z,78.90
2018-04-23T23:28:33.465Z,78.90
2018-04-23T23:31:00.185Z,78.90
2018-04-23T23:33:26.186Z,79.00
2018-04-23T23:35:52.189Z,78.70
2018-04-23T23:38:18.193Z,80.20
2018-04-23T23:40:44.182Z,79.90
2018-04-23T23:43:10.941Z,79.30
2018-04-23T23:45:37.661Z,82.00
2018-04-23T23:48:03.635Z,82.10
2018-04-23T23:50:29.633Z,79.40
2018-04-23T23:52:55.653Z,79.90
2018-04-23T23:55:21.689Z,79.40
2018-04-23T23:57:48.393Z,79.80
